Time;durP1;ratioP1;P1;durP2;ratioP2;P2;SDS_P1;SDS_P2;PMS_P1;PMS_P2;Temp;Humidity;BMP_temperature;BMP_pressure;BME280_temperature;BME280_humidity;BME280_pressure;Samples;Min_cycle;Max_cycle;Signal;HPM_P1;HPM_P2
2021/04/26 00:01:39;;;;;;;1.90;1.10;;;;;;;;;;5071489;28;20032;-83
2021/04/26 00:04:05;;;;;;;1.80;0.93;;;;;;;;;;5052310;28;20033;-83
2021/04/26 00:06:31;;;;;;;5.97;1.20;;;;;;;;;;5068269;28;20090;-83
2021/04/26 00:08:57;;;;;;;2.75;1.30;;;;;;;;;;5055623;28;20067;-83
2021/04/26 00:11:23;;;;;;;3.45;1.02;;;;;;;;;;5059320;28;20615;-84
2021/04/26 00:13:49;;;;;;;2.50;1.20;;;;;;;;;;5058878;28;20032;-83
2021/04/26 00:16:15;;;;;;;4.68;1.25;;;;;;;;;;5053673;28;20066;-83
2021/04/26 00:18:41;;;;;;;2.38;1.13;;;;;;;;;;5047622;28;20120;-83
2021/04/26 00:21:07;;;;;;;2.10;1.25;;;;;;;;;;5058785;28;20400;-83
2021/04/26 00:23:33;;;;;;;3.03;1.27;;;;;;;;;;5052504;28;20124;-83
2021/04/26 00:26:00;;;;;;;2.50;1.20;;;;;;;;;;5058222;28;20099;-83
2021/04/26 00:28:25;;;;;;;2.70;1.40;;;;;;;;;;5051615;28;20479;-83
2021/04/26 00:30:51;;;;;;;2.97;1.08;;;;;;;;;;5051961;28;20078;-83
2021/04/26 00:33:17;;;;;;;2.15;1.02;;;;;;;;;;5053720;28;20036;-83
2021/04/26 00:35:43;;;;;;;3.80;1.30;;;;;;;;;;5049620;28;20031;-83
2021/04/26 00:38:09;;;;;;;2.63;1.48;;;;;;;;;;5053610;28;20055;-83
2021/04/26 00:40:35;;;;;;;2.90;1.50;;;;;;;;;;5052231;28;20501;-83
2021/04/26 00:43:02;;;;;;;2.15;1.27;;;;;;;;;;5073996;28;20107;-83
2021/04/26 00:45:28;;;;;;;1.83;1.35;;;;;;;;;;5043677;28;20104;-83
2021/04/26 00:47:54;;;;;;;4.85;1.40;;;;;;;;;;5074350;28;20044;-83
2021/04/26 00:50:21;;;;;;;3.47;1.40;;;;;;;;;;5053429;28;20056;-83
2021/04/26 00:52:48;;;;;;;3.38;1.50;;;;;;;;;;5057613;28;20031;-84
2021/04/26 00:55:15;;;;;;;3.40;1.33;;;;;;;;;;5053720;28;20524;-83
2021/04/26 00:57:41;;;;;;;3.42;1.42;;;;;;;;;;5052173;28;20123;-83
2021/04/26 01:00:12;;;;;;;2.65;1.50;;;;;;;;;;5051463;28;20029;-83
2021/04/26 01:02:38;;;;;;;2.70;1.67;;;;;;;;;;5055921;28;20024;-82
2021/04/26 01:05:06;;;;;;;3.75;1.40;;;;;;;;;;5052769;28;20028;-82
2021/04/26 01:07:34;;;;;;;3.22;1.60;;;;;;;;;;5066097;28;20079;-82
2021/04/26 01:10:00;;;;;;;4.78;1.95;;;;;;;;;;5070141;28;20377;-82
2021/04/26 01:12:42;;;;;;;4.10;1.60;;;;;;;;;;5044940;28;20444;-82
2021/04/26 01:15:08;;;;;;;4.22;1.52;;;;;;;;;;5049126;28;20115;-82
2021/04/26 01:17:36;;;;;;;2.75;1.05;;;;;;;;;;5047237;28;20036;-82
2021/04/26 01:20:15;;;;;;;4.18;1.40;;;;;;;;;;5040387;28;20025;-82
2021/04/26 01:22:56;;;;;;;2.90;1.65;;;;;;;;;;5053201;28;20112;-82
2021/04/26 01:25:23;;;;;;;4.75;1.80;;;;;;;;;;5055754;28;20027;-82
2021/04/26 01:28:03;;;;;;;1.88;1.20;;;;;;;;;;5047138;28;20056;-82
2021/04/26 01:30:32;;;;;;;3.88;1.70;;;;;;;;;;5070131;28;20028;-82
2021/04/26 01:33:09;;;;;;;1.70;1.20;;;;;;;;;;5070566;28;20067;-82
2021/04/26 01:35:35;;;;;;;3.20;1.38;;;;;;;;;;5073890;28;20024;-82
2021/04/26 01:38:19;;;;;;;3.88;1.38;;;;;;;;;;5055871;28;20029;-82
2021/04/26 01:40:47;;;;;;;2.35;1.20;;;;;;;;;;5067050;28;20038;-82
2021/04/26 01:43:16;;;;;;;3.22;1.35;;;;;;;;;;5037274;28;20384;-82
2021/04/26 01:45:43;;;;;;;2.15;1.38;;;;;;;;;;5038081;28;20090;-82
2021/04/26 01:48:09;;;;;;;4.28;1.20;;;;;;;;;;5059409;28;20119;-82
2021/04/26 01:50:35;;;;;;;2.58;1.33;;;;;;;;;;5077093;28;20025;-82
2021/04/26 01:53:02;;;;;;;2.65;1.40;;;;;;;;;;5077069;28;20031;-82
2021/04/26 01:55:28;;;;;;;2.65;1.25;;;;;;;;;;5051526;28;20033;-82
2021/04/26 01:57:55;;;;;;;2.00;1.30;;;;;;;;;;5053765;28;20500;-82
2021/04/26 02:00:30;;;;;;;3.08;1.30;;;;;;;;;;5059169;28;20490;-82
2021/04/26 02:02:56;;;;;;;2.28;1.27;;;;;;;;;;5059174;28;20029;-82
2021/04/26 02:05:24;;;;;;;1.83;1.30;;;;;;;;;;5059136;28;20046;-82
2021/04/26 02:07:50;;;;;;;2.65;1.52;;;;;;;;;;5054620;28;20045;-82
2021/04/26 02:10:17;;;;;;;1.55;1.17;;;;;;;;;;5052113;28;20112;-82
2021/04/26 02:12:44;;;;;;;3.63;1.40;;;;;;;;;;5049761;28;20456;-82
2021/04/26 02:15:12;;;;;;;1.40;1.15;;;;;;;;;;5057173;28;20086;-82
2021/04/26 02:17:38;;;;;;;2.72;1.20;;;;;;;;;;5055747;28;20021;-82
2021/04/26 02:20:06;;;;;;;2.65;1.40;;;;;;;;;;5042634;28;20153;-82
2021/04/26 02:22:32;;;;;;;2.15;1.13;;;;;;;;;;5054784;28;20033;-82
2021/04/26 02:24:58;;;;;;;3.20;1.42;;;;;;;;;;5046448;28;20052;-82
2021/04/26 02:27:24;;;;;;;5.15;1.52;;;;;;;;;;5055549;28;20416;-82
2021/04/26 02:29:51;;;;;;;3.22;1.60;;;;;;;;;;5047163;28;20029;-82
2021/04/26 02:32:21;;;;;;;2.17;1.23;;;;;;;;;;5042788;28;20042;-82
2021/04/26 02:34:50;;;;;;;1.85;1.20;;;;;;;;;;5045568;28;20032;-82
2021/04/26 02:37:39;;;;;;;3.72;1.40;;;;;;;;;;5048881;28;20032;-82
2021/04/26 02:40:06;;;;;;;3.67;1.85;;;;;;;;;;5047649;28;20044;-82
2021/04/26 02:42:34;;;;;;;2.90;1.40;;;;;;;;;;5049069;28;20598;-82
2021/04/26 02:45:01;;;;;;;2.55;1.60;;;;;;;;;;5042173;28;20154;-82
2021/04/26 02:47:28;;;;;;;3.05;1.35;;;;;;;;;;5046286;28;20022;-82
2021/04/26 02:49:54;;;;;;;4.50;1.58;;;;;;;;;;5036202;28;20608;-81
2021/04/26 02:52:21;;;;;;;2.67;1.50;;;;;;;;;;5046520;28;20109;-82
2021/04/26 02:54:48;;;;;;;4.13;1.60;;;;;;;;;;5054000;28;20024;-82
2021/04/26 02:57:14;;;;;;;3.47;1.60;;;;;;;;;;5033960;28;20116;-82
2021/04/26 02:59:40;;;;;;;2.55;1.50;;;;;;;;;;5036314;28;20756;-82
2021/04/26 03:02:07;;;;;;;2.92;1.33;;;;;;;;;;5046914;28;20503;-82
2021/04/26 03:04:33;;;;;;;2.47;1.50;;;;;;;;;;5053598;28;20021;-82
2021/04/26 03:07:01;;;;;;;3.15;1.52;;;;;;;;;;5054919;28;20049;-82
2021/04/26 03:09:28;;;;;;;7.38;1.67;;;;;;;;;;5057481;28;20028;-82
2021/04/26 03:11:54;;;;;;;3.70;1.50;;;;;;;;;;5048271;28;20111;-82
2021/04/26 03:14:21;;;;;;;2.58;1.30;;;;;;;;;;5072461;28;20388;-82
2021/04/26 03:16:48;;;;;;;5.50;1.52;;;;;;;;;;5055412;28;20028;-82
2021/04/26 03:19:16;;;;;;;3.05;1.70;;;;;;;;;;5068236;28;20116;-82
2021/04/26 03:21:42;;;;;;;4.10;1.33;;;;;;;;;;5052909;28;20028;-82
2021/04/26 03:24:09;;;;;;;2.22;1.58;;;;;;;;;;5048006;28;20083;-82
2021/04/26 03:26:35;;;;;;;3.20;1.50;;;;;;;;;;5049970;28;20121;-82
2021/04/26 03:29:01;;;;;;;2.67;1.48;;;;;;;;;;5065966;28;20464;-82
2021/04/26 03:31:28;;;;;;;3.83;1.40;;;;;;;;;;5039514;28;20373;-82
2021/04/26 03:33:54;;;;;;;3.28;1.90;;;;;;;;;;5037714;28;20075;-82
2021/04/26 03:36:22;;;;;;;5.25;1.63;;;;;;;;;;5054740;28;20078;-82
2021/04/26 03:38:50;;;;;;;3.20;1.80;;;;;;;;;;5056294;28;20492;-82
2021/04/26 03:41:16;;;;;;;3.72;1.55;;;;;;;;;;5055696;28;20025;-82
2021/04/26 03:43:43;;;;;;;3.72;1.90;;;;;;;;;;5037582;28;20500;-82
2021/04/26 03:46:09;;;;;;;2.47;1.48;;;;;;;;;;5057520;28;20096;-82
2021/04/26 03:48:35;;;;;;;3.60;1.77;;;;;;;;;;5053736;28;20024;-82
2021/04/26 03:51:01;;;;;;;4.50;1.58;;;;;;;;;;5051815;28;20029;-82
2021/04/26 03:53:27;;;;;;;2.15;1.42;;;;;;;;;;5064418;28;20115;-82
2021/04/26 03:55:53;;;;;;;3.45;1.55;;;;;;;;;;5056886;28;20068;-82
2021/04/26 03:58:19;;;;;;;2.10;1.42;;;;;;;;;;5056815;28;20055;-82
2021/04/26 04:00:45;;;;;;;2.63;1.50;;;;;;;;;;5069643;28;20020;-82
2021/04/26 04:03:13;;;;;;;5.03;1.83;;;;;;;;;;5050983;28;20028;-80
2021/04/26 04:05:40;;;;;;;4.25;1.90;;;;;;;;;;5072056;28;20059;-80
2021/04/26 04:08:07;;;;;;;4.15;1.80;;;;;;;;;;5047867;28;20044;-80
2021/04/26 04:10:33;;;;;;;3.72;1.70;;;;;;;;;;5058987;28;20392;-81
2021/04/26 04:12:59;;;;;;;3.85;1.55;;;;;;;;;;5053107;28;20115;-81
2021/04/26 04:15:25;;;;;;;3.60;1.63;;;;;;;;;;5068578;28;20103;-81
2021/04/26 04:17:51;;;;;;;3.67;1.55;;;;;;;;;;5041963;28;20167;-82
2021/04/26 04:20:17;;;;;;;3.70;1.75;;;;;;;;;;5055927;28;20029;-81
2021/04/26 04:22:44;;;;;;;4.43;2.20;;;;;;;;;;5056442;28;20039;-81
2021/04/26 04:25:10;;;;;;;7.45;1.88;;;;;;;;;;5045476;28;20029;-81
2021/04/26 04:27:36;;;;;;;3.80;2.30;;;;;;;;;;5052935;28;20480;-81
2021/04/26 04:30:04;;;;;;;4.70;1.95;;;;;;;;;;5056446;28;20119;-82
2021/04/26 04:32:31;;;;;;;3.42;1.65;;;;;;;;;;5056698;28;20025;-81
2021/04/26 04:34:57;;;;;;;6.90;1.90;;;;;;;;;;5052707;28;20024;-82
2021/04/26 04:37:23;;;;;;;3.58;1.77;;;;;;;;;;5056218;28;20078;-81
2021/04/26 04:39:49;;;;;;;4.20;1.75;;;;;;;;;;5074330;28;20476;-82
2021/04/26 04:42:15;;;;;;;5.70;1.75;;;;;;;;;;5056216;28;20021;-82
2021/04/26 04:44:41;;;;;;;3.72;1.83;;;;;;;;;;5055617;28;20028;-82
2021/04/26 04:47:07;;;;;;;6.57;1.73;;;;;;;;;;5041846;28;20893;-82
2021/04/26 04:49:33;;;;;;;4.70;1.65;;;;;;;;;;5056166;28;20115;-82
2021/04/26 04:51:59;;;;;;;2.83;1.67;;;;;;;;;;5055738;28;20107;-81
2021/04/26 04:54:25;;;;;;;3.38;1.55;;;;;;;;;;5072425;28;20518;-83
2021/04/26 04:56:54;;;;;;;3.47;1.98;;;;;;;;;;5047940;28;20025;-82
2021/04/26 04:59:20;;;;;;;5.07;2.13;;;;;;;;;;5055418;28;20130;-82
2021/04/26 05:04:50;;;;;;;2.67;1.98;;;;;;;;;;5065647;28;20423;-82
2021/04/26 05:07:16;;;;;;;4.20;1.90;;;;;;;;;;5054892;28;20052;-82
2021/04/26 05:09:42;;;;;;;2.03;1.40;;;;;;;;;;5063994;28;20457;-81
2021/04/26 05:12:08;;;;;;;3.65;1.80;;;;;;;;;;5053454;28;20017;-81
2021/04/26 05:14:34;;;;;;;3.88;1.70;;;;;;;;;;5056401;28;20119;-82
2021/04/26 05:17:00;;;;;;;1.90;1.42;;;;;;;;;;5044494;28;20029;-81
2021/04/26 05:19:26;;;;;;;4.05;1.63;;;;;;;;;;5055644;28;20075;-82
2021/04/26 05:21:52;;;;;;;6.00;1.77;;;;;;;;;;5053384;28;20052;-82
2021/04/26 05:24:18;;;;;;;2.15;1.27;;;;;;;;;;5073521;28;20162;-83
2021/04/26 05:26:44;;;;;;;3.80;1.30;;;;;;;;;;5054444;28;20115;-82
2021/04/26 05:29:10;;;;;;;2.65;1.15;;;;;;;;;;5067011;28;20173;-82
2021/04/26 05:31:36;;;;;;;2.67;1.73;;;;;;;;;;5043846;28;20472;-82
2021/04/26 05:34:02;;;;;;;5.57;1.17;;;;;;;;;;5055821;28;20119;-82
2021/04/26 05:36:28;;;;;;;3.72;1.40;;;;;;;;;;5053830;28;20040;-82
2021/04/26 05:38:54;;;;;;;3.80;1.10;;;;;;;;;;5036312;28;20033;-82
2021/04/26 05:41:20;;;;;;;5.30;1.23;;;;;;;;;;5040170;28;20472;-82
2021/04/26 05:43:46;;;;;;;1.92;1.23;;;;;;;;;;5055604;28;20025;-83
2021/04/26 05:46:14;;;;;;;6.18;1.80;;;;;;;;;;5056307;28;20036;-83
2021/04/26 05:48:41;;;;;;;1.98;1.13;;;;;;;;;;5073911;28;20035;-83
2021/04/26 05:51:06;;;;;;;1.73;1.30;;;;;;;;;;5035956;28;20075;-82
2021/04/26 05:53:32;;;;;;;3.55;1.05;;;;;;;;;;5039029;28;20024;-84
2021/04/26 05:55:59;;;;;;;3.25;1.40;;;;;;;;;;5047823;28;20463;-84
2021/04/26 05:58:26;;;;;;;4.47;1.30;;;;;;;;;;5055003;28;20071;-83
2021/04/26 06:00:52;;;;;;;3.15;1.50;;;;;;;;;;5053007;28;20070;-83
2021/04/26 06:03:18;;;;;;;2.22;1.33;;;;;;;;;;5050401;28;20025;-83
2021/04/26 06:05:44;;;;;;;1.83;1.20;;;;;;;;;;5046235;28;20028;-83
2021/04/26 06:08:10;;;;;;;5.75;1.60;;;;;;;;;;5049800;28;20485;-83
2021/04/26 06:10:36;;;;;;;3.63;1.30;;;;;;;;;;5047312;28;20070;-83
2021/04/26 06:13:02;;;;;;;2.20;1.30;;;;;;;;;;5042816;28;20032;-83
2021/04/26 06:15:28;;;;;;;3.05;1.67;;;;;;;;;;5057607;28;20422;-84
2021/04/26 06:18:07;;;;;;;5.60;1.40;;;;;;;;;;5066051;28;20540;-84
2021/04/26 06:20:33;;;;;;;2.22;1.27;;;;;;;;;;5050222;28;20476;-83
2021/04/26 06:22:59;;;;;;;4.22;1.77;;;;;;;;;;5056214;28;20024;-84
2021/04/26 06:25:25;;;;;;;3.65;1.75;;;;;;;;;;5074243;28;20436;-84
2021/04/26 06:27:51;;;;;;;9.23;1.60;;;;;;;;;;5050512;28;20017;-84
2021/04/26 06:30:17;;;;;;;2.22;1.30;;;;;;;;;;5050394;28;20029;-83
2021/04/26 06:32:43;;;;;;;5.47;1.42;;;;;;;;;;5056651;28;20137;-83
2021/04/26 06:35:09;;;;;;;5.43;1.70;;;;;;;;;;5076048;28;20030;-84
2021/04/26 06:37:35;;;;;;;3.72;1.63;;;;;;;;;;5056104;28;20021;-83
2021/04/26 06:40:01;;;;;;;7.30;1.38;;;;;;;;;;5052672;28;20040;-83
2021/04/26 06:42:29;;;;;;;5.20;1.55;;;;;;;;;;5069454;28;20456;-83
2021/04/26 06:44:55;;;;;;;2.75;1.30;;;;;;;;;;5042438;28;20040;-83
2021/04/26 06:47:21;;;;;;;7.55;1.42;;;;;;;;;;5069249;28;20446;-84
2021/04/26 06:49:47;;;;;;;5.68;1.27;;;;;;;;;;5044466;28;20025;-84
2021/04/26 06:52:13;;;;;;;3.90;1.10;;;;;;;;;;5052557;28;20021;-84
2021/04/26 06:54:39;;;;;;;2.88;0.80;;;;;;;;;;5050334;28;20025;-83
2021/04/26 06:57:05;;;;;;;3.15;1.13;;;;;;;;;;5058653;28;20178;-84
2021/04/26 06:59:31;;;;;;;10.35;1.27;;;;;;;;;;5058900;28;20043;-84
2021/04/26 07:01:57;;;;;;;4.60;0.98;;;;;;;;;;5053816;28;20021;-84
2021/04/26 07:04:23;;;;;;;3.08;1.00;;;;;;;;;;5054261;28;20495;-84
2021/04/26 07:06:49;;;;;;;6.13;1.27;;;;;;;;;;5072239;28;20501;-84
2021/04/26 07:09:15;;;;;;;3.28;1.10;;;;;;;;;;5039452;28;20017;-83
2021/04/26 07:11:41;;;;;;;5.60;1.13;;;;;;;;;;5044929;28;20025;-83
2021/04/26 07:14:07;;;;;;;2.00;0.90;;;;;;;;;;5050893;28;20021;-83
2021/04/26 07:16:33;;;;;;;2.72;1.00;;;;;;;;;;5070122;28;20384;-83
2021/04/26 07:19:00;;;;;;;5.13;0.90;;;;;;;;;;5052456;28;20032;-83
2021/04/26 07:21:26;;;;;;;3.03;0.80;;;;;;;;;;5046883;28;20115;-83
2021/04/26 07:23:52;;;;;;;4.22;0.80;;;;;;;;;;5069857;28;20372;-83
2021/04/26 07:26:18;;;;;;;1.45;0.60;;;;;;;;;;5057243;28;20030;-83
2021/04/26 07:28:44;;;;;;;3.90;0.70;;;;;;;;;;5057690;28;20036;-83
2021/04/26 07:31:10;;;;;;;0.95;0.68;;;;;;;;;;5054769;28;20480;-83
2021/04/26 07:33:35;;;;;;;1.67;1.10;;;;;;;;;;5077351;28;20052;-83
2021/04/26 07:36:01;;;;;;;2.60;0.80;;;;;;;;;;5053761;28;20029;-83
2021/04/26 07:38:27;;;;;;;2.42;0.80;;;;;;;;;;5056284;28;20499;-84
2021/04/26 07:40:53;;;;;;;2.95;0.82;;;;;;;;;;5057598;28;20024;-83
2021/04/26 07:43:20;;;;;;;3.95;0.90;;;;;;;;;;5057417;28;20514;-83
2021/04/26 07:45:46;;;;;;;1.95;0.60;;;;;;;;;;5057259;28;20115;-82
2021/04/26 07:48:12;;;;;;;2.35;0.60;;;;;;;;;;5083866;28;20104;-82
2021/04/26 07:50:39;;;;;;;2.83;0.93;;;;;;;;;;5063611;28;20640;-83
2021/04/26 07:53:05;;;;;;;6.22;0.88;;;;;;;;;;5074380;28;20016;-83
2021/04/26 07:55:31;;;;;;;2.08;0.60;;;;;;;;;;5064395;28;20028;-83
2021/04/26 07:57:57;;;;;;;2.83;0.80;;;;;;;;;;5064603;28;20016;-83
2021/04/26 08:00:24;;;;;;;5.72;1.20;;;;;;;;;;5058127;28;20538;-83
2021/04/26 08:02:50;;;;;;;2.15;0.95;;;;;;;;;;5047876;28;20499;-83
2021/04/26 08:05:16;;;;;;;0.95;0.60;;;;;;;;;;5057661;28;20020;-83
2021/04/26 08:07:42;;;;;;;2.17;0.80;;;;;;;;;;5075253;28;20032;-83
2021/04/26 08:10:09;;;;;;;3.08;0.70;;;;;;;;;;5055064;28;20024;-83
2021/04/26 08:12:35;;;;;;;1.13;0.65;;;;;;;;;;5047007;28;20021;-83
2021/04/26 08:15:01;;;;;;;2.90;1.13;;;;;;;;;;5049151;28;20111;-83
2021/04/26 08:17:27;;;;;;;1.77;0.55;;;;;;;;;;5057443;28;20029;-83
2021/04/26 08:19:53;;;;;;;1.48;0.52;;;;;;;;;;5057805;28;20029;-83
2021/04/26 08:22:19;;;;;;;3.08;0.82;;;;;;;;;;5075259;28;20028;-83
2021/04/26 08:24:45;;;;;;;1.35;0.73;;;;;;;;;;5050175;28;20078;-83
2021/04/26 08:27:11;;;;;;;1.25;0.70;;;;;;;;;;5043085;28;20731;-83
2021/04/26 08:29:37;;;;;;;3.95;0.80;;;;;;;;;;5038475;28;20029;-83
2021/04/26 08:32:03;;;;;;;0.95;0.50;;;;;;;;;;5049941;28;20017;-83
2021/04/26 08:34:29;;;;;;;2.10;0.57;;;;;;;;;;5058088;28;20032;-83
2021/04/26 08:36:55;;;;;;;2.03;0.70;;;;;;;;;;5057085;28;20029;-83
2021/04/26 08:39:21;;;;;;;1.95;0.65;;;;;;;;;;5049723;28;20029;-83
2021/04/26 08:41:47;;;;;;;2.60;0.50;;;;;;;;;;5048771;28;20028;-83
2021/04/26 08:44:13;;;;;;;1.45;0.47;;;;;;;;;;5053594;28;20032;-83
2021/04/26 08:46:44;;;;;;;2.83;0.70;;;;;;;;;;5053284;28;20119;-83
2021/04/26 08:49:11;;;;;;;3.75;0.70;;;;;;;;;;5054582;28;20093;-84
2021/04/26 08:51:38;;;;;;;1.95;0.70;;;;;;;;;;5071315;28;20074;-82
2021/04/26 08:54:04;;;;;;;2.47;0.43;;;;;;;;;;5037860;28;20029;-83
2021/04/26 08:56:30;;;;;;;3.22;0.50;;;;;;;;;;5055627;28;20076;-83
2021/04/26 08:58:56;;;;;;;1.92;0.63;;;;;;;;;;5047888;28;20508;-83
2021/04/26 09:01:22;;;;;;;1.13;0.22;;;;;;;;;;5075778;28;20096;-83
2021/04/26 09:03:48;;;;;;;3.05;0.57;;;;;;;;;;5056824;28;20024;-81
2021/04/26 09:06:14;;;;;;;1.33;0.60;;;;;;;;;;5053792;28;20056;-81
2021/04/26 09:08:46;;;;;;;1.67;0.50;;;;;;;;;;5056195;28;20904;-81
2021/04/26 09:11:12;;;;;;;0.63;0.22;;;;;;;;;;5053891;28;20060;-81
2021/04/26 09:13:45;;;;;;;2.13;0.80;;;;;;;;;;5056753;28;20024;-83
2021/04/26 09:16:18;;;;;;;0.75;0.43;;;;;;;;;;5043365;28;20033;-84
2021/04/26 09:18:54;;;;;;;3.40;0.50;;;;;;;;;;5055407;28;20040;-84
2021/04/26 09:21:25;;;;;;;2.08;0.43;;;;;;;;;;5037559;28;20033;-84
2021/04/26 09:24:37;;;;;;;1.25;0.40;;;;;;;;;;5040034;28;20033;-85
2021/04/26 09:27:05;;;;;;;2.30;0.98;;;;;;;;;;5047883;28;20086;-83
2021/04/26 09:29:32;;;;;;;1.65;0.50;;;;;;;;;;5057744;28;20055;-83
2021/04/26 09:31:58;;;;;;;1.35;0.52;;;;;;;;;;5058400;28;20024;-83
2021/04/26 09:34:37;;;;;;;1.48;0.40;;;;;;;;;;5054520;28;20097;-84
2021/04/26 09:37:23;;;;;;;1.90;0.65;;;;;;;;;;5073276;28;20028;-84
2021/04/26 09:40:01;;;;;;;1.55;0.40;;;;;;;;;;5050909;28;20119;-84
2021/04/26 09:42:46;;;;;;;2.72;0.60;;;;;;;;;;5053748;28;20031;-84
2021/04/26 09:45:15;;;;;;;1.70;0.40;;;;;;;;;;5060631;28;20050;-84
2021/04/26 09:47:41;;;;;;;2.10;0.60;;;;;;;;;;5069850;28;20363;-84
2021/04/26 09:50:07;;;;;;;2.42;0.50;;;;;;;;;;5069438;28;20000;-84
2021/04/26 09:52:33;;;;;;;2.42;0.50;;;;;;;;;;5089434;28;20059;-84
2021/04/26 09:54:59;;;;;;;1.58;0.45;;;;;;;;;;5065412;28;20009;-84
2021/04/26 09:57:25;;;;;;;2.05;0.57;;;;;;;;;;5067248;28;20063;-84
2021/04/26 09:59:51;;;;;;;2.97;0.60;;;;;;;;;;5068873;28;20028;-83
2021/04/26 10:02:18;;;;;;;1.95;0.50;;;;;;;;;;5083797;28;20084;-84
2021/04/26 10:04:44;;;;;;;2.95;0.80;;;;;;;;;;5064385;28;20028;-83
2021/04/26 10:07:12;;;;;;;5.30;1.20;;;;;;;;;;5066269;28;20032;-83
2021/04/26 10:09:41;;;;;;;2.05;0.60;;;;;;;;;;5060546;28;20033;-83
2021/04/26 10:12:10;;;;;;;3.72;0.60;;;;;;;;;;5057591;28;20049;-83
2021/04/26 10:14:39;;;;;;;2.45;0.68;;;;;;;;;;5074679;28;20040;-83
2021/04/26 10:17:13;;;;;;;2.58;0.57;;;;;;;;;;5056111;28;20030;-83
2021/04/26 10:19:44;;;;;;;5.22;0.70;;;;;;;;;;5069641;28;20013;-83
2021/04/26 10:22:10;;;;;;;1.75;0.60;;;;;;;;;;5075995;28;20029;-83
2021/04/26 10:24:49;;;;;;;2.80;0.95;;;;;;;;;;5077005;28;20021;-83
2021/04/26 10:27:28;;;;;;;1.80;0.55;;;;;;;;;;5069219;28;20025;-83
2021/04/26 10:30:14;;;;;;;1.85;0.68;;;;;;;;;;5056348;28;20113;-83
2021/04/26 10:32:59;;;;;;;2.80;0.70;;;;;;;;;;5074333;28;20009;-83
2021/04/26 10:35:26;;;;;;;1.65;0.70;;;;;;;;;;5068074;28;20049;-83
2021/04/26 10:37:53;;;;;;;5.65;0.70;;;;;;;;;;5055692;28;20022;-83
2021/04/26 10:40:23;;;;;;;7.53;0.73;;;;;;;;;;5049106;28;20072;-84
2021/04/26 10:42:50;;;;;;;3.55;0.57;;;;;;;;;;5036766;28;20112;-84
2021/04/26 10:45:23;;;;;;;2.17;0.55;;;;;;;;;;5045447;28;20396;-84
2021/04/26 10:47:55;;;;;;;2.63;0.47;;;;;;;;;;5043162;28;20027;-84
2021/04/26 10:50:21;;;;;;;2.42;0.60;;;;;;;;;;5056414;28;20032;-85
2021/04/26 10:52:53;;;;;;;1.95;0.52;;;;;;;;;;5049375;28;20024;-84
2021/04/26 10:55:19;;;;;;;2.67;0.77;;;;;;;;;;5057278;28;20385;-84
2021/04/26 10:57:49;;;;;;;0.50;0.40;;;;;;;;;;5046687;28;20028;-85
2021/04/26 11:00:31;;;;;;;1.95;0.63;;;;;;;;;;5055136;28;20021;-85
2021/04/26 11:02:58;;;;;;;3.28;0.60;;;;;;;;;;5055597;28;20079;-85
2021/04/26 11:05:26;;;;;;;1.27;0.40;;;;;;;;;;5050299;28;20021;-84
2021/04/26 11:07:55;;;;;;;4.47;1.02;;;;;;;;;;5048412;28;20124;-85
2021/04/26 11:10:31;;;;;;;1.85;0.57;;;;;;;;;;5040139;28;20030;-85
2021/04/26 11:12:57;;;;;;;2.78;0.60;;;;;;;;;;5055312;28;20492;-84
2021/04/26 11:15:24;;;;;;;2.85;0.40;;;;;;;;;;5048188;28;20124;-84
2021/04/26 11:17:51;;;;;;;2.28;0.50;;;;;;;;;;5044835;28;20080;-84
2021/04/26 11:20:18;;;;;;;2.03;0.70;;;;;;;;;;5049527;28;20068;-84
2021/04/26 11:22:44;;;;;;;3.47;0.55;;;;;;;;;;5056968;28;20028;-84
2021/04/26 11:25:30;;;;;;;2.00;0.90;;;;;;;;;;5040412;28;20029;-84
2021/04/26 11:27:56;;;;;;;6.82;1.00;;;;;;;;;;5044165;28;20029;-84
2021/04/26 11:30:23;;;;;;;4.03;0.90;;;;;;;;;;5047433;28;20096;-83
2021/04/26 11:33:00;;;;;;;2.97;0.52;;;;;;;;;;5051650;28;20013;-84
2021/04/26 11:35:26;;;;;;;4.13;0.80;;;;;;;;;;5054313;28;20037;-84
2021/04/26 11:37:53;;;;;;;2.83;0.60;;;;;;;;;;5043920;28;20033;-84
2021/04/26 11:40:23;;;;;;;2.75;0.63;;;;;;;;;;5051689;28;20431;-84
2021/04/26 11:42:49;;;;;;;1.92;0.90;;;;;;;;;;5041173;28;20408;-84
2021/04/26 11:45:20;;;;;;;3.33;0.88;;;;;;;;;;5055059;28;20385;-84
2021/04/26 11:47:46;;;;;;;8.98;0.88;;;;;;;;;;5046587;28;20044;-85
2021/04/26 11:50:12;;;;;;;4.20;1.17;;;;;;;;;;5047191;28;20029;-84
2021/04/26 11:52:38;;;;;;;1.92;0.70;;;;;;;;;;5055806;28;20488;-85
2021/04/26 11:55:05;;;;;;;7.60;0.68;;;;;;;;;;5050602;28;20363;-85
2021/04/26 11:57:38;;;;;;;3.42;0.93;;;;;;;;;;5054229;28;20025;-84
2021/04/26 12:00:06;;;;;;;2.55;0.60;;;;;;;;;;5055435;28;20040;-84
2021/04/26 12:02:44;;;;;;;1.48;0.50;;;;;;;;;;5043669;28;20080;-85
2021/04/26 12:05:11;;;;;;;1.25;0.68;;;;;;;;;;5043854;28;20033;-84
2021/04/26 12:07:38;;;;;;;3.45;0.40;;;;;;;;;;5066443;28;20537;-85
2021/04/26 12:10:09;;;;;;;3.20;0.55;;;;;;;;;;5054188;28;20067;-82
2021/04/26 12:12:35;;;;;;;1.77;0.50;;;;;;;;;;5053854;28;20055;-82
2021/04/26 12:15:03;;;;;;;2.47;0.52;;;;;;;;;;5049221;28;20026;-82
2021/04/26 12:17:30;;;;;;;1.80;0.70;;;;;;;;;;5054542;28;20165;-82
2021/04/26 12:19:57;;;;;;;3.20;0.50;;;;;;;;;;5053747;28;20033;-82
2021/04/26 12:22:24;;;;;;;1.58;0.50;;;;;;;;;;5053666;28;20029;-82
2021/04/26 12:24:51;;;;;;;3.40;0.65;;;;;;;;;;5045646;28;20029;-82
2021/04/26 12:27:18;;;;;;;2.45;0.50;;;;;;;;;;5051748;28;20128;-82
2021/04/26 12:29:44;;;;;;;2.35;0.80;;;;;;;;;;5054979;28;20488;-82
2021/04/26 12:32:15;;;;;;;1.75;0.40;;;;;;;;;;5051051;28;20504;-82
2021/04/26 12:35:01;;;;;;;2.97;0.50;;;;;;;;;;5054345;28;20029;-81
2021/04/26 12:37:29;;;;;;;1.65;0.40;;;;;;;;;;5042753;28;20029;-82
2021/04/26 12:40:13;;;;;;;1.98;0.50;;;;;;;;;;5056767;28;20091;-82
2021/04/26 12:42:39;;;;;;;1.75;0.50;;;;;;;;;;5057918;28;20032;-82
2021/04/26 12:45:12;;;;;;;2.33;0.40;;;;;;;;;;5049115;28;20013;-83
2021/04/26 12:47:38;;;;;;;;;;;;;;;;;;5052200;28;20488;-83
2021/04/26 12:50:28;;;;;;;1.17;0.52;;;;;;;;;;5045018;28;19913;-84
2021/04/26 12:53:10;;;;;;;3.60;0.60;;;;;;;;;;5042112;28;20066;-83
2021/04/26 12:55:38;;;;;;;3.97;0.57;;;;;;;;;;5045950;28;20030;-84
2021/04/26 12:58:11;;;;;;;1.90;0.55;;;;;;;;;;5050850;28;20061;-84
2021/04/26 13:00:38;;;;;;;5.30;0.50;;;;;;;;;;5053657;28;20033;-83
2021/04/26 13:03:24;;;;;;;2.17;0.68;;;;;;;;;;5049111;28;20129;-83
2021/04/26 13:05:51;;;;;;;2.38;0.70;;;;;;;;;;5053171;28;20025;-83
2021/04/26 13:08:20;;;;;;;1.95;0.55;;;;;;;;;;5067548;28;20049;-83
2021/04/26 13:10:46;;;;;;;6.55;1.00;;;;;;;;;;5073165;28;20021;-83
2021/04/26 13:13:12;;;;;;;1.48;0.70;;;;;;;;;;5055700;28;20480;-83
2021/04/26 13:15:38;;;;;;;2.78;0.65;;;;;;;;;;5054421;28;20052;-83
2021/04/26 13:18:14;;;;;;;1.95;0.50;;;;;;;;;;5044249;28;20074;-83
2021/04/26 13:20:42;;;;;;;2.72;0.60;;;;;;;;;;5037670;28;20108;-83
2021/04/26 13:23:15;;;;;;;4.60;0.63;;;;;;;;;;5041238;28;20029;-83
2021/04/26 13:25:41;;;;;;;1.40;0.70;;;;;;;;;;5054384;28;20039;-84
2021/04/26 13:28:07;;;;;;;2.10;0.50;;;;;;;;;;5055517;28;20123;-83
2021/04/26 13:30:33;;;;;;;1.92;0.55;;;;;;;;;;5056828;28;20028;-84
2021/04/26 13:32:59;;;;;;;3.78;0.43;;;;;;;;;;5051716;28;20017;-83
2021/04/26 13:35:25;;;;;;;1.60;0.40;;;;;;;;;;5066681;28;20470;-84
2021/04/26 13:37:51;;;;;;;1.20;0.65;;;;;;;;;;5073883;28;20554;-84
2021/04/26 13:40:17;;;;;;;2.40;0.50;;;;;;;;;;5057910;28;20025;-84
2021/04/26 13:42:43;;;;;;;2.45;0.68;;;;;;;;;;5075886;28;20029;-83
2021/04/26 13:45:09;;;;;;;3.05;0.65;;;;;;;;;;5059366;28;20087;-84
2021/04/26 13:47:35;;;;;;;5.70;0.68;;;;;;;;;;5058901;28;20115;-84
2021/04/26 13:50:01;;;;;;;0.75;0.40;;;;;;;;;;5051017;28;20511;-84
2021/04/26 13:52:27;;;;;;;1.85;0.40;;;;;;;;;;5060104;28;20024;-83
2021/04/26 13:54:53;;;;;;;2.42;0.68;;;;;;;;;;5044358;28;20017;-81
2021/04/26 13:57:19;;;;;;;3.22;0.60;;;;;;;;;;5077996;28;20111;-81
2021/04/26 13:59:45;;;;;;;2.05;0.90;;;;;;;;;;5060963;28;20064;-81
2021/04/26 14:02:12;;;;;;;1.48;0.50;;;;;;;;;;5072522;28;20089;-83
2021/04/26 14:04:37;;;;;;;4.75;0.70;;;;;;;;;;5059564;28;20082;-83
2021/04/26 14:07:03;;;;;;;1.77;0.50;;;;;;;;;;5074821;28;20037;-83
2021/04/26 14:09:30;;;;;;;3.45;0.55;;;;;;;;;;5072378;28;20048;-83
2021/04/26 14:11:56;;;;;;;1.25;0.70;;;;;;;;;;5060827;28;20369;-83
2021/04/26 14:14:22;;;;;;;3.60;0.50;;;;;;;;;;5062024;28;20035;-83
2021/04/26 14:16:48;;;;;;;5.43;0.50;;;;;;;;;;5077122;28;20468;-82
2021/04/26 14:19:14;;;;;;;1.80;0.47;;;;;;;;;;5060750;28;20435;-83
2021/04/26 14:21:40;;;;;;;2.97;0.70;;;;;;;;;;5060078;28;20036;-83
2021/04/26 14:24:06;;;;;;;2.70;0.60;;;;;;;;;;5060663;28;20021;-83
2021/04/26 14:26:32;;;;;;;3.10;0.40;;;;;;;;;;5069415;28;20119;-83
2021/04/26 14:28:58;;;;;;;2.45;0.57;;;;;;;;;;5052711;28;20104;-83
2021/04/26 14:31:24;;;;;;;0.60;0.40;;;;;;;;;;5058818;28;20046;-83
2021/04/26 14:33:50;;;;;;;3.53;0.35;;;;;;;;;;5058653;28;20048;-83
2021/04/26 14:36:16;;;;;;;1.30;0.30;;;;;;;;;;5075312;28;20032;-83
2021/04/26 14:38:42;;;;;;;1.45;0.38;;;;;;;;;;5051131;28;20056;-83
2021/04/26 14:41:08;;;;;;;2.33;1.10;;;;;;;;;;5058621;28;20400;-84
2021/04/26 14:43:35;;;;;;;1.27;0.45;;;;;;;;;;5054760;28;20027;-81
2021/04/26 14:46:03;;;;;;;1.23;0.47;;;;;;;;;;5054293;28;20119;-82
2021/04/26 14:48:29;;;;;;;2.60;0.40;;;;;;;;;;5056804;28;20024;-83
2021/04/26 14:50:55;;;;;;;1.13;0.57;;;;;;;;;;5054987;28;20111;-82